CheckWX is a tool to help pilots better visualize weather data.  It is not intended as a substitute for an official pre-flight weather briefing.

03:31:55 UTC

KEFD METAR
Ellington Airport
Houston, Texas, USA
Current

42 mins ago

KEFD 220250Z 14005KT 10SM FEW025 BKN250 27/23 A2993
Observed
Jul-22 @ 02:50 UTC
Wind
  • 140° at 5 KTS
Visibility
10 SM
Flight Rules
VFR
Cloud Levels
  • Few at 2,500' AGL
  • Broken at 25,000' AGL
Temperature
27°C / 81°F
Dewpoint
23°C / 73°F
Heat Index
30°C / 86°F
Humidity
79%
Altimeter
29.93" Hg
Pressure
1013.52 hPa
Previous

2 hours ago

KEFD 220150Z 16007KT 10SM FEW030 SCT180 BKN250 28/23 A2993
Observed
Jul-22 @ 01:50 UTC
Wind
  • 160° at 7 KTS
Visibility
10 SM
Flight Rules
VFR
Cloud Levels
  • Few at 3,000' AGL
  • Scattered at 18,000' AGL
  • Broken at 25,000' AGL
Temperature
28°C / 82°F
Dewpoint
23°C / 73°F
Heat Index
31°C / 87°F
Humidity
74%
Altimeter
29.93" Hg
Pressure
1013.52 hPa
Previous

3 hours ago

KEFD 220050Z 16006KT 10SM FEW030 SCT180 BKN250 29/22 A2993
Observed
Jul-22 @ 00:50 UTC
Wind
  • 160° at 6 KTS
Visibility
10 SM
Flight Rules
VFR
Cloud Levels
  • Few at 3,000' AGL
  • Scattered at 18,000' AGL
  • Broken at 25,000' AGL
Temperature
29°C / 84°F
Dewpoint
22°C / 72°F
Heat Index
32°C / 89°F
Humidity
66%
Altimeter
29.93" Hg
Pressure
1013.52 hPa